sensor_id;sensor_type;location;lat;lon;timestamp;P1;durP1;ratioP1;P2;durP2;ratioP2
42714;SDS011;28351;51.480;5.706;2022-08-02T00:01:34;5.97;;;3.20;;
42714;SDS011;28351;51.480;5.706;2022-08-02T00:03:59;7.18;;;3.15;;
42714;SDS011;28351;51.480;5.706;2022-08-02T00:06:25;4.75;;;3.03;;
42714;SDS011;28351;51.480;5.706;2022-08-02T00:08:51;4.20;;;2.95;;
42714;SDS011;28351;51.480;5.706;2022-08-02T00:11:17;5.25;;;3.45;;
42714;SDS011;28351;51.480;5.706;2022-08-02T00:13:43;3.85;;;3.08;;
42714;SDS011;28351;51.480;5.706;2022-08-02T00:16:09;8.25;;;3.10;;
42714;SDS011;28351;51.480;5.706;2022-08-02T00:18:34;4.18;;;2.85;;
42714;SDS011;28351;51.480;5.706;2022-08-02T00:21:00;5.80;;;2.90;;
42714;SDS011;28351;51.480;5.706;2022-08-02T00:23:26;6.22;;;2.92;;
42714;SDS011;28351;51.480;5.706;2022-08-02T00:25:51;5.88;;;3.08;;
42714;SDS011;28351;51.480;5.706;2022-08-02T00:28:17;3.58;;;2.78;;
42714;SDS011;28351;51.480;5.706;2022-08-02T00:30:42;6.45;;;3.20;;
42714;SDS011;28351;51.480;5.706;2022-08-02T00:33:08;2.88;;;2.58;;
42714;SDS011;28351;51.480;5.706;2022-08-02T00:35:36;5.38;;;2.90;;
42714;SDS011;28351;51.480;5.706;2022-08-02T00:38:02;5.30;;;3.00;;
42714;SDS011;28351;51.480;5.706;2022-08-02T00:40:28;3.45;;;2.45;;
42714;SDS011;28351;51.480;5.706;2022-08-02T00:43:07;4.13;;;2.78;;
42714;SDS011;28351;51.480;5.706;2022-08-02T00:45:35;4.82;;;3.15;;
42714;SDS011;28351;51.480;5.706;2022-08-02T00:48:02;5.90;;;2.88;;
42714;SDS011;28351;51.480;5.706;2022-08-02T00:50:29;3.53;;;2.45;;
42714;SDS011;28351;51.480;5.706;2022-08-02T00:52:55;3.72;;;3.03;;
42714;SDS011;28351;51.480;5.706;2022-08-02T00:55:21;4.40;;;2.90;;
42714;SDS011;28351;51.480;5.706;2022-08-02T00:57:47;5.95;;;3.17;;
42714;SDS011;28351;51.480;5.706;2022-08-02T01:00:13;4.47;;;3.30;;
42714;SDS011;28351;51.480;5.706;2022-08-02T01:02:39;4.22;;;3.00;;
42714;SDS011;28351;51.480;5.706;2022-08-02T01:05:05;4.82;;;2.92;;
42714;SDS011;28351;51.480;5.706;2022-08-02T01:07:32;4.60;;;3.30;;
42714;SDS011;28351;51.480;5.706;2022-08-02T01:09:57;4.60;;;3.22;;
42714;SDS011;28351;51.480;5.706;2022-08-02T01:12:24;5.30;;;2.85;;
42714;SDS011;28351;51.480;5.706;2022-08-02T01:14:51;5.75;;;2.92;;
42714;SDS011;28351;51.480;5.706;2022-08-02T01:19:56;4.25;;;2.42;;
42714;SDS011;28351;51.480;5.706;2022-08-02T01:30:52;4.55;;;3.17;;
42714;SDS011;28351;51.480;5.706;2022-08-02T01:33:34;5.85;;;2.72;;
42714;SDS011;28351;51.480;5.706;2022-08-02T01:36:05;4.40;;;2.83;;
42714;SDS011;28351;51.480;5.706;2022-08-02T01:38:39;3.92;;;2.50;;
42714;SDS011;28351;51.480;5.706;2022-08-02T01:41:09;8.40;;;2.83;;
42714;SDS011;28351;51.480;5.706;2022-08-02T01:43:40;4.13;;;2.80;;
42714;SDS011;28351;51.480;5.706;2022-08-02T01:46:07;3.40;;;2.42;;
42714;SDS011;28351;51.480;5.706;2022-08-02T01:48:36;6.47;;;2.83;;
42714;SDS011;28351;51.480;5.706;2022-08-02T01:51:04;4.78;;;2.58;;
42714;SDS011;28351;51.480;5.706;2022-08-02T01:53:32;6.28;;;2.78;;
42714;SDS011;28351;51.480;5.706;2022-08-02T01:56:00;5.25;;;2.83;;
42714;SDS011;28351;51.480;5.706;2022-08-02T01:58:28;6.82;;;3.05;;
42714;SDS011;28351;51.480;5.706;2022-08-02T02:01:00;4.53;;;2.95;;
42714;SDS011;28351;51.480;5.706;2022-08-02T02:03:28;3.15;;;2.47;;
42714;SDS011;28351;51.480;5.706;2022-08-02T02:05:56;6.97;;;2.83;;
42714;SDS011;28351;51.480;5.706;2022-08-02T02:08:25;6.15;;;2.70;;
42714;SDS011;28351;51.480;5.706;2022-08-02T02:10:54;5.22;;;2.80;;
42714;SDS011;28351;51.480;5.706;2022-08-02T02:13:21;5.93;;;2.97;;
42714;SDS011;28351;51.480;5.706;2022-08-02T02:15:48;4.35;;;2.78;;
42714;SDS011;28351;51.480;5.706;2022-08-02T02:18:22;4.22;;;2.53;;
42714;SDS011;28351;51.480;5.706;2022-08-02T02:20:49;4.82;;;2.70;;
42714;SDS011;28351;51.480;5.706;2022-08-02T02:23:15;4.80;;;2.67;;
42714;SDS011;28351;51.480;5.706;2022-08-02T02:25:42;6.28;;;3.15;;
42714;SDS011;28351;51.480;5.706;2022-08-02T02:28:10;5.65;;;3.00;;
42714;SDS011;28351;51.480;5.706;2022-08-02T02:30:48;6.32;;;3.05;;
42714;SDS011;28351;51.480;5.706;2022-08-02T02:33:19;5.90;;;3.00;;
42714;SDS011;28351;51.480;5.706;2022-08-02T02:35:46;3.67;;;2.78;;
42714;SDS011;28351;51.480;5.706;2022-08-02T02:38:15;4.95;;;3.05;;
42714;SDS011;28351;51.480;5.706;2022-08-02T02:40:44;4.40;;;2.97;;
42714;SDS011;28351;51.480;5.706;2022-08-02T02:43:11;4.85;;;3.42;;
42714;SDS011;28351;51.480;5.706;2022-08-02T02:45:38;5.25;;;3.00;;
42714;SDS011;28351;51.480;5.706;2022-08-02T02:48:05;6.20;;;3.20;;
42714;SDS011;28351;51.480;5.706;2022-08-02T02:50:32;4.97;;;3.17;;
42714;SDS011;28351;51.480;5.706;2022-08-02T02:52:58;3.10;;;2.55;;
42714;SDS011;28351;51.480;5.706;2022-08-02T02:55:25;3.85;;;2.53;;
42714;SDS011;28351;51.480;5.706;2022-08-02T02:57:55;3.97;;;2.92;;
42714;SDS011;28351;51.480;5.706;2022-08-02T03:00:20;4.40;;;2.95;;
42714;SDS011;28351;51.480;5.706;2022-08-02T03:03:07;8.05;;;2.70;;
42714;SDS011;28351;51.480;5.706;2022-08-02T03:05:33;5.35;;;3.30;;
42714;SDS011;28351;51.480;5.706;2022-08-02T03:07:59;5.43;;;3.17;;
42714;SDS011;28351;51.480;5.706;2022-08-02T03:10:24;5.25;;;2.97;;
42714;SDS011;28351;51.480;5.706;2022-08-02T03:12:51;4.30;;;2.97;;
42714;SDS011;28351;51.480;5.706;2022-08-02T03:15:16;4.80;;;2.85;;
42714;SDS011;28351;51.480;5.706;2022-08-02T03:17:43;8.77;;;3.38;;
42714;SDS011;28351;51.480;5.706;2022-08-02T03:20:14;7.18;;;3.22;;
42714;SDS011;28351;51.480;5.706;2022-08-02T03:22:41;5.22;;;3.10;;
42714;SDS011;28351;51.480;5.706;2022-08-02T03:25:09;7.97;;;2.78;;
42714;SDS011;28351;51.480;5.706;2022-08-02T03:27:35;4.15;;;3.05;;
42714;SDS011;28351;51.480;5.706;2022-08-02T03:30:02;4.38;;;2.55;;
42714;SDS011;28351;51.480;5.706;2022-08-02T03:32:29;5.70;;;3.15;;
42714;SDS011;28351;51.480;5.706;2022-08-02T03:34:55;5.88;;;3.30;;
42714;SDS011;28351;51.480;5.706;2022-08-02T03:37:21;4.07;;;3.13;;
42714;SDS011;28351;51.480;5.706;2022-08-02T03:39:47;2.72;;;2.35;;
42714;SDS011;28351;51.480;5.706;2022-08-02T03:42:13;6.53;;;2.88;;
42714;SDS011;28351;51.480;5.706;2022-08-02T03:44:39;4.72;;;2.60;;
42714;SDS011;28351;51.480;5.706;2022-08-02T03:47:06;3.90;;;2.92;;
42714;SDS011;28351;51.480;5.706;2022-08-02T03:49:33;5.60;;;2.75;;
42714;SDS011;28351;51.480;5.706;2022-08-02T03:52:00;6.17;;;3.00;;
42714;SDS011;28351;51.480;5.706;2022-08-02T03:54:26;6.22;;;3.25;;
42714;SDS011;28351;51.480;5.706;2022-08-02T03:56:52;8.07;;;3.40;;
42714;SDS011;28351;51.480;5.706;2022-08-02T03:59:18;6.28;;;3.00;;
42714;SDS011;28351;51.480;5.706;2022-08-02T04:01:43;4.55;;;2.92;;
42714;SDS011;28351;51.480;5.706;2022-08-02T04:04:10;3.97;;;2.60;;
42714;SDS011;28351;51.480;5.706;2022-08-02T04:06:35;3.65;;;3.05;;
42714;SDS011;28351;51.480;5.706;2022-08-02T04:09:01;4.28;;;2.90;;
42714;SDS011;28351;51.480;5.706;2022-08-02T04:11:27;7.55;;;3.20;;
42714;SDS011;28351;51.480;5.706;2022-08-02T04:13:56;5.55;;;3.20;;
42714;SDS011;28351;51.480;5.706;2022-08-02T04:16:39;5.60;;;3.13;;
42714;SDS011;28351;51.480;5.706;2022-08-02T04:19:09;7.78;;;3.20;;
42714;SDS011;28351;51.480;5.706;2022-08-02T04:21:39;5.65;;;2.60;;
42714;SDS011;28351;51.480;5.706;2022-08-02T04:24:06;5.25;;;3.08;;
42714;SDS011;28351;51.480;5.706;2022-08-02T04:26:34;3.65;;;2.80;;
42714;SDS011;28351;51.480;5.706;2022-08-02T04:29:01;5.20;;;2.80;;
42714;SDS011;28351;51.480;5.706;2022-08-02T04:31:27;5.00;;;3.08;;
42714;SDS011;28351;51.480;5.706;2022-08-02T04:33:53;6.95;;;3.28;;
42714;SDS011;28351;51.480;5.706;2022-08-02T04:36:19;4.88;;;3.10;;
42714;SDS011;28351;51.480;5.706;2022-08-02T04:38:45;4.95;;;3.30;;
42714;SDS011;28351;51.480;5.706;2022-08-02T04:41:13;5.80;;;3.20;;
42714;SDS011;28351;51.480;5.706;2022-08-02T04:43:39;7.03;;;3.47;;
42714;SDS011;28351;51.480;5.706;2022-08-02T04:46:05;6.60;;;3.38;;
42714;SDS011;28351;51.480;5.706;2022-08-02T04:48:31;8.48;;;3.72;;
42714;SDS011;28351;51.480;5.706;2022-08-02T04:50:57;6.38;;;3.47;;
42714;SDS011;28351;51.480;5.706;2022-08-02T04:53:23;4.63;;;3.25;;
42714;SDS011;28351;51.480;5.706;2022-08-02T04:55:51;6.28;;;3.42;;
42714;SDS011;28351;51.480;5.706;2022-08-02T04:58:18;5.50;;;3.40;;
42714;SDS011;28351;51.480;5.706;2022-08-02T05:00:43;6.80;;;3.47;;
42714;SDS011;28351;51.480;5.706;2022-08-02T05:03:09;5.55;;;3.78;;
42714;SDS011;28351;51.480;5.706;2022-08-02T05:05:35;4.80;;;3.50;;
42714;SDS011;28351;51.480;5.706;2022-08-02T05:08:01;5.35;;;3.47;;
42714;SDS011;28351;51.480;5.706;2022-08-02T05:10:27;8.25;;;4.10;;
42714;SDS011;28351;51.480;5.706;2022-08-02T05:12:52;6.13;;;3.70;;
42714;SDS011;28351;51.480;5.706;2022-08-02T05:15:18;6.95;;;3.40;;
42714;SDS011;28351;51.480;5.706;2022-08-02T05:17:44;5.63;;;3.75;;
42714;SDS011;28351;51.480;5.706;2022-08-02T05:20:11;6.97;;;4.28;;
42714;SDS011;28351;51.480;5.706;2022-08-02T05:22:38;8.88;;;4.05;;
42714;SDS011;28351;51.480;5.706;2022-08-02T05:25:04;6.78;;;4.00;;
42714;SDS011;28351;51.480;5.706;2022-08-02T05:27:30;6.32;;;4.35;;
42714;SDS011;28351;51.480;5.706;2022-08-02T05:29:57;7.60;;;4.47;;
42714;SDS011;28351;51.480;5.706;2022-08-02T05:32:23;6.97;;;4.60;;
42714;SDS011;28351;51.480;5.706;2022-08-02T05:34:49;9.63;;;3.90;;
42714;SDS011;28351;51.480;5.706;2022-08-02T05:37:15;6.47;;;4.63;;
42714;SDS011;28351;51.480;5.706;2022-08-02T05:39:41;9.75;;;4.68;;
42714;SDS011;28351;51.480;5.706;2022-08-02T05:42:07;7.22;;;4.68;;
42714;SDS011;28351;51.480;5.706;2022-08-02T05:44:32;12.50;;;5.03;;
42714;SDS011;28351;51.480;5.706;2022-08-02T05:46:58;8.75;;;5.00;;
42714;SDS011;28351;51.480;5.706;2022-08-02T05:49:24;10.15;;;5.43;;
42714;SDS011;28351;51.480;5.706;2022-08-02T05:54:30;6.88;;;6.00;;
42714;SDS011;28351;51.480;5.706;2022-08-02T05:57:10;9.02;;;5.55;;
42714;SDS011;28351;51.480;5.706;2022-08-02T05:59:54;10.05;;;6.00;;
42714;SDS011;28351;51.480;5.706;2022-08-02T06:05:18;9.18;;;5.88;;
42714;SDS011;28351;51.480;5.706;2022-08-02T06:07:44;7.63;;;5.82;;
42714;SDS011;28351;51.480;5.706;2022-08-02T06:10:12;11.57;;;6.32;;
42714;SDS011;28351;51.480;5.706;2022-08-02T06:12:45;8.93;;;6.20;;
42714;SDS011;28351;51.480;5.706;2022-08-02T06:15:18;11.13;;;6.50;;
42714;SDS011;28351;51.480;5.706;2022-08-02T06:17:45;10.38;;;6.72;;
42714;SDS011;28351;51.480;5.706;2022-08-02T06:20:11;9.85;;;6.53;;
42714;SDS011;28351;51.480;5.706;2022-08-02T06:22:41;10.38;;;6.55;;
42714;SDS011;28351;51.480;5.706;2022-08-02T06:25:09;11.18;;;7.15;;
42714;SDS011;28351;51.480;5.706;2022-08-02T06:27:35;12.80;;;7.57;;
42714;SDS011;28351;51.480;5.706;2022-08-02T06:30:03;10.23;;;7.72;;
42714;SDS011;28351;51.480;5.706;2022-08-02T06:32:30;12.88;;;7.57;;
42714;SDS011;28351;51.480;5.706;2022-08-02T06:34:56;14.02;;;7.32;;
42714;SDS011;28351;51.480;5.706;2022-08-02T06:37:26;12.43;;;8.90;;
42714;SDS011;28351;51.480;5.706;2022-08-02T06:42:48;14.88;;;9.23;;
42714;SDS011;28351;51.480;5.706;2022-08-02T06:45:34;12.25;;;8.10;;
42714;SDS011;28351;51.480;5.706;2022-08-02T06:48:00;12.43;;;9.15;;
42714;SDS011;28351;51.480;5.706;2022-08-02T06:50:26;10.02;;;8.70;;
42714;SDS011;28351;51.480;5.706;2022-08-02T06:52:53;10.32;;;8.40;;
42714;SDS011;28351;51.480;5.706;2022-08-02T06:55:18;12.23;;;7.82;;
42714;SDS011;28351;51.480;5.706;2022-08-02T06:57:44;11.20;;;8.45;;
42714;SDS011;28351;51.480;5.706;2022-08-02T07:00:09;10.85;;;8.77;;
42714;SDS011;28351;51.480;5.706;2022-08-02T07:02:36;11.57;;;8.73;;
42714;SDS011;28351;51.480;5.706;2022-08-02T07:05:06;9.30;;;7.28;;
42714;SDS011;28351;51.480;5.706;2022-08-02T07:07:33;13.18;;;8.50;;
42714;SDS011;28351;51.480;5.706;2022-08-02T07:09:59;12.93;;;8.35;;
42714;SDS011;28351;51.480;5.706;2022-08-02T07:12:25;10.32;;;7.72;;
42714;SDS011;28351;51.480;5.706;2022-08-02T07:14:51;10.40;;;7.25;;
42714;SDS011;28351;51.480;5.706;2022-08-02T07:17:16;9.60;;;7.57;;
42714;SDS011;28351;51.480;5.706;2022-08-02T07:19:42;9.50;;;7.18;;
42714;SDS011;28351;51.480;5.706;2022-08-02T07:22:08;7.00;;;6.30;;
42714;SDS011;28351;51.480;5.706;2022-08-02T07:24:34;9.32;;;6.47;;
42714;SDS011;28351;51.480;5.706;2022-08-02T07:26:59;9.57;;;6.53;;
42714;SDS011;28351;51.480;5.706;2022-08-02T07:29:25;9.63;;;6.60;;
42714;SDS011;28351;51.480;5.706;2022-08-02T07:31:51;8.15;;;5.70;;
42714;SDS011;28351;51.480;5.706;2022-08-02T07:34:17;10.77;;;6.60;;
42714;SDS011;28351;51.480;5.706;2022-08-02T07:39:11;8.02;;;5.20;;
42714;SDS011;28351;51.480;5.706;2022-08-02T07:41:37;6.30;;;5.00;;
42714;SDS011;28351;51.480;5.706;2022-08-02T07:44:03;6.57;;;4.82;;
42714;SDS011;28351;51.480;5.706;2022-08-02T07:46:29;6.43;;;4.70;;
42714;SDS011;28351;51.480;5.706;2022-08-02T07:48:59;7.20;;;4.95;;
42714;SDS011;28351;51.480;5.706;2022-08-02T07:51:24;6.63;;;4.57;;
42714;SDS011;28351;51.480;5.706;2022-08-02T07:53:50;6.70;;;4.00;;
42714;SDS011;28351;51.480;5.706;2022-08-02T07:56:15;4.63;;;3.75;;
42714;SDS011;28351;51.480;5.706;2022-08-02T07:58:41;6.22;;;4.18;;
42714;SDS011;28351;51.480;5.706;2022-08-02T08:01:07;5.50;;;4.28;;
42714;SDS011;28351;51.480;5.706;2022-08-02T08:03:32;6.60;;;4.18;;
42714;SDS011;28351;51.480;5.706;2022-08-02T08:05:58;6.72;;;3.97;;
42714;SDS011;28351;51.480;5.706;2022-08-02T08:08:25;4.35;;;3.33;;
42714;SDS011;28351;51.480;5.706;2022-08-02T08:10:50;4.93;;;3.83;;
42714;SDS011;28351;51.480;5.706;2022-08-02T08:13:16;7.10;;;4.22;;
42714;SDS011;28351;51.480;5.706;2022-08-02T08:15:42;6.57;;;4.22;;
42714;SDS011;28351;51.480;5.706;2022-08-02T08:18:08;4.70;;;3.83;;
42714;SDS011;28351;51.480;5.706;2022-08-02T08:20:34;5.85;;;3.50;;
42714;SDS011;28351;51.480;5.706;2022-08-02T08:22:59;4.60;;;3.35;;
42714;SDS011;28351;51.480;5.706;2022-08-02T08:25:25;4.47;;;3.53;;
42714;SDS011;28351;51.480;5.706;2022-08-02T08:27:51;5.22;;;3.47;;
42714;SDS011;28351;51.480;5.706;2022-08-02T08:30:17;6.10;;;3.55;;
42714;SDS011;28351;51.480;5.706;2022-08-02T08:32:45;4.32;;;3.58;;
42714;SDS011;28351;51.480;5.706;2022-08-02T08:35:11;4.68;;;3.10;;
42714;SDS011;28351;51.480;5.706;2022-08-02T08:37:38;6.03;;;3.70;;
42714;SDS011;28351;51.480;5.706;2022-08-02T08:40:04;4.72;;;3.00;;
42714;SDS011;28351;51.480;5.706;2022-08-02T08:42:31;5.60;;;3.45;;
42714;SDS011;28351;51.480;5.706;2022-08-02T08:44:57;5.82;;;3.20;;
42714;SDS011;28351;51.480;5.706;2022-08-02T08:50:06;4.88;;;2.70;;
42714;SDS011;28351;51.480;5.706;2022-08-02T08:52:41;3.67;;;2.53;;
42714;SDS011;28351;51.480;5.706;2022-08-02T08:55:13;3.88;;;2.10;;
42714;SDS011;28351;51.480;5.706;2022-08-02T08:57:40;6.63;;;2.40;;
42714;SDS011;28351;51.480;5.706;2022-08-02T09:00:08;2.53;;;1.92;;
42714;SDS011;28351;51.480;5.706;2022-08-02T09:02:35;2.85;;;2.03;;
42714;SDS011;28351;51.480;5.706;2022-08-02T09:05:01;3.45;;;2.10;;
42714;SDS011;28351;51.480;5.706;2022-08-02T09:07:29;3.35;;;1.90;;
42714;SDS011;28351;51.480;5.706;2022-08-02T09:09:55;2.30;;;1.95;;
42714;SDS011;28351;51.480;5.706;2022-08-02T09:12:21;6.50;;;2.58;;
42714;SDS011;28351;51.480;5.706;2022-08-02T09:14:48;4.53;;;2.38;;
42714;SDS011;28351;51.480;5.706;2022-08-02T09:17:14;3.83;;;2.05;;
42714;SDS011;28351;51.480;5.706;2022-08-02T09:19:40;3.40;;;2.47;;
42714;SDS011;28351;51.480;5.706;2022-08-02T09:22:09;3.55;;;2.70;;
42714;SDS011;28351;51.480;5.706;2022-08-02T09:24:48;3.83;;;2.60;;
42714;SDS011;28351;51.480;5.706;2022-08-02T09:27:18;6.40;;;2.92;;
42714;SDS011;28351;51.480;5.706;2022-08-02T09:29:46;4.93;;;2.72;;
42714;SDS011;28351;51.480;5.706;2022-08-02T09:32:13;4.53;;;2.38;;
42714;SDS011;28351;51.480;5.706;2022-08-02T09:34:45;2.75;;;2.40;;
42714;SDS011;28351;51.480;5.706;2022-08-02T09:39:54;5.13;;;2.95;;
42714;SDS011;28351;51.480;5.706;2022-08-02T09:42:23;3.92;;;2.58;;
42714;SDS011;28351;51.480;5.706;2022-08-02T09:44:52;5.13;;;2.45;;
42714;SDS011;28351;51.480;5.706;2022-08-02T09:47:19;2.80;;;2.20;;
42714;SDS011;28351;51.480;5.706;2022-08-02T09:49:49;2.78;;;2.45;;
42714;SDS011;28351;51.480;5.706;2022-08-02T09:52:15;2.88;;;2.20;;
42714;SDS011;28351;51.480;5.706;2022-08-02T09:54:53;4.53;;;2.20;;
42714;SDS011;28351;51.480;5.706;2022-08-02T09:57:26;2.92;;;1.65;;
42714;SDS011;28351;51.480;5.706;2022-08-02T09:59:56;3.95;;;1.90;;
42714;SDS011;28351;51.480;5.706;2022-08-02T10:02:22;4.90;;;2.20;;
42714;SDS011;28351;51.480;5.706;2022-08-02T10:04:48;4.82;;;2.03;;
42714;SDS011;28351;51.480;5.706;2022-08-02T10:07:15;3.45;;;1.90;;
42714;SDS011;28351;51.480;5.706;2022-08-02T10:09:41;3.28;;;2.22;;
42714;SDS011;28351;51.480;5.706;2022-08-02T10:12:10;2.33;;;1.70;;
42714;SDS011;28351;51.480;5.706;2022-08-02T10:14:36;2.72;;;2.05;;
42714;SDS011;28351;51.480;5.706;2022-08-02T10:17:02;3.10;;;1.48;;
42714;SDS011;28351;51.480;5.706;2022-08-02T10:19:31;2.78;;;1.85;;
42714;SDS011;28351;51.480;5.706;2022-08-02T10:22:09;2.73;;;1.80;;
42714;SDS011;28351;51.480;5.706;2022-08-02T10:24:36;2.55;;;1.90;;
42714;SDS011;28351;51.480;5.706;2022-08-02T10:27:03;4.70;;;1.40;;
42714;SDS011;28351;51.480;5.706;2022-08-02T10:29:36;1.95;;;1.50;;
42714;SDS011;28351;51.480;5.706;2022-08-02T10:34:35;2.58;;;1.83;;
42714;SDS011;28351;51.480;5.706;2022-08-02T10:37:21;2.00;;;1.70;;
42714;SDS011;28351;51.480;5.706;2022-08-02T10:39:56;3.28;;;1.55;;
42714;SDS011;28351;51.480;5.706;2022-08-02T10:45:08;3.25;;;1.52;;
42714;SDS011;28351;51.480;5.706;2022-08-02T10:47:39;2.72;;;1.45;;
42714;SDS011;28351;51.480;5.706;2022-08-02T10:55:48;1.73;;;1.50;;
42714;SDS011;28351;51.480;5.706;2022-08-02T10:58:14;1.75;;;1.60;;
42714;SDS011;28351;51.480;5.706;2022-08-02T11:00:41;3.13;;;1.67;;
42714;SDS011;28351;51.480;5.706;2022-08-02T11:03:14;1.83;;;1.33;;
42714;SDS011;28351;51.480;5.706;2022-08-02T11:06:02;3.10;;;1.42;;
42714;SDS011;28351;51.480;5.706;2022-08-02T11:08:32;2.50;;;1.40;;
42714;SDS011;28351;51.480;5.706;2022-08-02T11:10:59;1.50;;;1.40;;
42714;SDS011;28351;51.480;5.706;2022-08-02T11:13:26;2.05;;;1.48;;
42714;SDS011;28351;51.480;5.706;2022-08-02T11:16:01;2.53;;;1.40;;
42714;SDS011;28351;51.480;5.706;2022-08-02T11:21:19;1.75;;;1.52;;
42714;SDS011;28351;51.480;5.706;2022-08-02T11:23:45;2.28;;;1.60;;
42714;SDS011;28351;51.480;5.706;2022-08-02T11:28:59;2.50;;;1.60;;
42714;SDS011;28351;51.480;5.706;2022-08-02T11:31:26;2.78;;;1.85;;
42714;SDS011;28351;51.480;5.706;2022-08-02T11:33:53;1.90;;;1.15;;
42714;SDS011;28351;51.480;5.706;2022-08-02T11:36:19;2.40;;;1.60;;
42714;SDS011;28351;51.480;5.706;2022-08-02T11:38:44;2.60;;;1.30;;
42714;SDS011;28351;51.480;5.706;2022-08-02T11:41:20;1.40;;;1.20;;
42714;SDS011;28351;51.480;5.706;2022-08-02T11:43:55;2.25;;;1.48;;
42714;SDS011;28351;51.480;5.706;2022-08-02T11:46:20;1.42;;;1.17;;
42714;SDS011;28351;51.480;5.706;2022-08-02T11:48:46;2.20;;;1.48;;
42714;SDS011;28351;51.480;5.706;2022-08-02T11:51:12;2.33;;;1.60;;
42714;SDS011;28351;51.480;5.706;2022-08-02T11:53:43;2.65;;;1.55;;
42714;SDS011;28351;51.480;5.706;2022-08-02T11:56:14;1.73;;;1.35;;
42714;SDS011;28351;51.480;5.706;2022-08-02T11:58:41;1.58;;;1.02;;
42714;SDS011;28351;51.480;5.706;2022-08-02T12:01:24;1.35;;;1.25;;
42714;SDS011;28351;51.480;5.706;2022-08-02T12:03:49;2.13;;;1.58;;
42714;SDS011;28351;51.480;5.706;2022-08-02T12:06:16;2.05;;;1.40;;
42714;SDS011;28351;51.480;5.706;2022-08-02T12:08:42;2.10;;;1.90;;
42714;SDS011;28351;51.480;5.706;2022-08-02T12:11:08;1.67;;;1.17;;
42714;SDS011;28351;51.480;5.706;2022-08-02T12:13:43;2.28;;;1.27;;
42714;SDS011;28351;51.480;5.706;2022-08-02T12:16:12;2.25;;;1.30;;
42714;SDS011;28351;51.480;5.706;2022-08-02T12:18:58;1.42;;;1.00;;
42714;SDS011;28351;51.480;5.706;2022-08-02T12:21:43;1.10;;;1.00;;
42714;SDS011;28351;51.480;5.706;2022-08-02T12:24:09;1.35;;;1.10;;
42714;SDS011;28351;51.480;5.706;2022-08-02T12:26:45;1.23;;;1.10;;
42714;SDS011;28351;51.480;5.706;2022-08-02T12:29:12;1.88;;;1.20;;
42714;SDS011;28351;51.480;5.706;2022-08-02T12:31:42;1.42;;;1.25;;
42714;SDS011;28351;51.480;5.706;2022-08-02T12:34:15;1.75;;;1.10;;
42714;SDS011;28351;51.480;5.706;2022-08-02T12:36:55;1.35;;;1.00;;
42714;SDS011;28351;51.480;5.706;2022-08-02T12:41:57;1.65;;;1.15;;
42714;SDS011;28351;51.480;5.706;2022-08-02T12:44:23;1.60;;;1.30;;
42714;SDS011;28351;51.480;5.706;2022-08-02T12:47:01;1.48;;;1.02;;
42714;SDS011;28351;51.480;5.706;2022-08-02T12:49:32;1.00;;;0.80;;
42714;SDS011;28351;51.480;5.706;2022-08-02T12:51:58;1.10;;;0.95;;
42714;SDS011;28351;51.480;5.706;2022-08-02T12:54:28;2.33;;;1.27;;
42714;SDS011;28351;51.480;5.706;2022-08-02T12:56:56;2.92;;;1.08;;
42714;SDS011;28351;51.480;5.706;2022-08-02T12:59:32;2.00;;;1.10;;
42714;SDS011;28351;51.480;5.706;2022-08-02T13:02:06;1.40;;;1.10;;
42714;SDS011;28351;51.480;5.706;2022-08-02T13:04:34;2.13;;;1.00;;
42714;SDS011;28351;51.480;5.706;2022-08-02T13:06:59;1.70;;;1.20;;
42714;SDS011;28351;51.480;5.706;2022-08-02T13:09:25;1.77;;;0.98;;
42714;SDS011;28351;51.480;5.706;2022-08-02T13:11:51;2.03;;;1.35;;
42714;SDS011;28351;51.480;5.706;2022-08-02T13:14:19;8.52;;;1.30;;
42714;SDS011;28351;51.480;5.706;2022-08-02T13:16:45;1.45;;;1.10;;
42714;SDS011;28351;51.480;5.706;2022-08-02T13:19:11;1.60;;;1.05;;
42714;SDS011;28351;51.480;5.706;2022-08-02T13:21:39;1.60;;;0.90;;
42714;SDS011;28351;51.480;5.706;2022-08-02T13:24:05;3.00;;;1.10;;
42714;SDS011;28351;51.480;5.706;2022-08-02T13:26:30;1.23;;;0.90;;
42714;SDS011;28351;51.480;5.706;2022-08-02T13:28:56;0.93;;;0.80;;
42714;SDS011;28351;51.480;5.706;2022-08-02T13:31:21;0.98;;;0.90;;
42714;SDS011;28351;51.480;5.706;2022-08-02T13:33:47;1.33;;;1.10;;
42714;SDS011;28351;51.480;5.706;2022-08-02T13:36:13;1.10;;;1.00;;
42714;SDS011;28351;51.480;5.706;2022-08-02T13:38:38;1.23;;;0.90;;
42714;SDS011;28351;51.480;5.706;2022-08-02T13:41:04;4.03;;;1.00;;
42714;SDS011;28351;51.480;5.706;2022-08-02T13:43:32;7.72;;;1.27;;
42714;SDS011;28351;51.480;5.706;2022-08-02T13:45:58;1.23;;;0.98;;
42714;SDS011;28351;51.480;5.706;2022-08-02T13:48:24;1.30;;;0.90;;
42714;SDS011;28351;51.480;5.706;2022-08-02T13:50:50;1.20;;;0.90;;
42714;SDS011;28351;51.480;5.706;2022-08-02T13:53:15;1.15;;;0.90;;
42714;SDS011;28351;51.480;5.706;2022-08-02T13:55:41;1.27;;;1.00;;
42714;SDS011;28351;51.480;5.706;2022-08-02T13:58:06;1.38;;;0.93;;
42714;SDS011;28351;51.480;5.706;2022-08-02T14:00:33;3.03;;;0.80;;
42714;SDS011;28351;51.480;5.706;2022-08-02T14:02:58;1.60;;;1.15;;
42714;SDS011;28351;51.480;5.706;2022-08-02T14:05:24;2.88;;;1.52;;
42714;SDS011;28351;51.480;5.706;2022-08-02T14:07:54;1.65;;;1.20;;
42714;SDS011;28351;51.480;5.706;2022-08-02T14:10:21;1.13;;;0.90;;
42714;SDS011;28351;51.480;5.706;2022-08-02T14:12:47;1.15;;;0.93;;
42714;SDS011;28351;51.480;5.706;2022-08-02T14:15:12;1.58;;;0.90;;
42714;SDS011;28351;51.480;5.706;2022-08-02T14:17:38;1.17;;;0.85;;
42714;SDS011;28351;51.480;5.706;2022-08-02T14:20:06;1.50;;;1.00;;
42714;SDS011;28351;51.480;5.706;2022-08-02T14:22:32;1.23;;;0.82;;
42714;SDS011;28351;51.480;5.706;2022-08-02T14:24:58;1.65;;;1.00;;
42714;SDS011;28351;51.480;5.706;2022-08-02T14:27:24;0.90;;;0.63;;
42714;SDS011;28351;51.480;5.706;2022-08-02T14:29:49;2.15;;;0.98;;
42714;SDS011;28351;51.480;5.706;2022-08-02T14:32:15;1.63;;;0.60;;
42714;SDS011;28351;51.480;5.706;2022-08-02T14:34:43;1.00;;;0.80;;
42714;SDS011;28351;51.480;5.706;2022-08-02T14:37:09;2.45;;;0.93;;
42714;SDS011;28351;51.480;5.706;2022-08-02T14:39:35;2.58;;;0.80;;
42714;SDS011;28351;51.480;5.706;2022-08-02T14:42:03;1.60;;;0.80;;
42714;SDS011;28351;51.480;5.706;2022-08-02T14:44:29;2.92;;;0.70;;
42714;SDS011;28351;51.480;5.706;2022-08-02T14:46:55;2.17;;;0.80;;
42714;SDS011;28351;51.480;5.706;2022-08-02T14:49:21;1.67;;;0.70;;
42714;SDS011;28351;51.480;5.706;2022-08-02T14:51:47;1.25;;;0.90;;
42714;SDS011;28351;51.480;5.706;2022-08-02T14:54:12;2.65;;;0.90;;
42714;SDS011;28351;51.480;5.706;2022-08-02T14:56:38;0.80;;;0.70;;
42714;SDS011;28351;51.480;5.706;2022-08-02T14:59:04;1.10;;;0.50;;
42714;SDS011;28351;51.480;5.706;2022-08-02T15:01:30;1.83;;;0.90;;
42714;SDS011;28351;51.480;5.706;2022-08-02T15:03:56;1.35;;;1.00;;
42714;SDS011;28351;51.480;5.706;2022-08-02T15:06:21;0.82;;;0.80;;
42714;SDS011;28351;51.480;5.706;2022-08-02T15:08:52;1.15;;;0.70;;
42714;SDS011;28351;51.480;5.706;2022-08-02T15:11:17;1.88;;;1.20;;
42714;SDS011;28351;51.480;5.706;2022-08-02T15:13:43;0.98;;;0.80;;
42714;SDS011;28351;51.480;5.706;2022-08-02T15:16:08;1.88;;;0.90;;
42714;SDS011;28351;51.480;5.706;2022-08-02T15:18:37;1.60;;;0.75;;
42714;SDS011;28351;51.480;5.706;2022-08-02T15:21:02;1.73;;;0.70;;
42714;SDS011;28351;51.480;5.706;2022-08-02T15:23:28;0.98;;;0.70;;
42714;SDS011;28351;51.480;5.706;2022-08-02T15:25:54;2.08;;;1.10;;
42714;SDS011;28351;51.480;5.706;2022-08-02T15:28:20;1.42;;;0.85;;
42714;SDS011;28351;51.480;5.706;2022-08-02T15:30:49;1.55;;;0.95;;
42714;SDS011;28351;51.480;5.706;2022-08-02T15:33:14;0.88;;;0.82;;
42714;SDS011;28351;51.480;5.706;2022-08-02T15:35:40;0.73;;;0.73;;